createdAt,value
2023-07-30T00:04:02.775Z,94.5
2023-07-30T00:09:08.722Z,94.5
2023-07-30T00:14:14.792Z,94.5
2023-07-30T00:19:20.903Z,95
2023-07-30T00:24:26.981Z,94.5
2023-07-30T00:29:33.121Z,94.5
2023-07-30T00:34:39.185Z,94.5
2023-07-30T00:39:45.373Z,94
2023-07-30T00:44:51.363Z,94
2023-07-30T00:49:57.445Z,94.5
2023-07-30T00:55:03.624Z,94.5
2023-07-30T01:00:09.790Z,95
2023-07-30T01:05:15.918Z,94
2023-07-30T01:10:21.850Z,95
2023-07-30T01:15:27.946Z,95
2023-07-30T01:20:34.219Z,94.5
2023-07-30T01:25:40.164Z,95
2023-07-30T01:30:46.305Z,94
2023-07-30T01:35:52.345Z,94
2023-07-30T01:40:58.431Z,92.5
2023-07-30T01:46:04.646Z,93.5
2023-07-30T01:51:10.890Z,93
2023-07-30T01:56:16.721Z,94
2023-07-30T02:01:22.833Z,94.5
2023-07-30T02:06:29.216Z,94
2023-07-30T02:11:35.083Z,94.5
2023-07-30T02:16:41.025Z,94
2023-07-30T02:21:47.292Z,94
2023-07-30T02:26:53.385Z,93.5
2023-07-30T02:31:59.367Z,93.5
2023-07-30T02:37:05.542Z,93
2023-07-30T02:42:11.839Z,93
2023-07-30T02:47:17.915Z,92
2023-07-30T02:52:23.727Z,93
2023-07-30T02:57:29.834Z,94.5
2023-07-30T03:02:35.977Z,94.5
2023-07-30T03:07:42.007Z,94
2023-07-30T03:12:48.095Z,94.5
2023-07-30T03:17:54.193Z,93.5
2023-07-30T03:23:00.271Z,94
2023-07-30T03:28:06.375Z,94.5
2023-07-30T03:33:12.610Z,94
2023-07-30T03:38:18.872Z,94.5
2023-07-30T03:43:24.666Z,94
2023-07-30T03:48:30.747Z,93.5
2023-07-30T03:53:36.866Z,94
2023-07-30T03:58:42.940Z,94
2023-07-30T04:03:49.096Z,94
2023-07-30T04:08:55.116Z,94
2023-07-30T04:14:01.268Z,93
2023-07-30T04:19:07.347Z,94
2023-07-30T04:24:13.430Z,93
2023-07-30T04:29:19.562Z,94
2023-07-30T04:34:25.661Z,92.5
2023-07-30T04:39:31.998Z,92.5
2023-07-30T04:44:37.819Z,93
2023-07-30T04:49:43.879Z,93
2023-07-30T04:54:49.973Z,92.5
2023-07-30T04:59:56.068Z,86
2023-07-30T05:05:02.284Z,76.5
2023-07-30T05:10:08.565Z,83
2023-07-30T05:15:14.358Z,87
2023-07-30T05:20:20.446Z,88
2023-07-30T05:25:26.557Z,86.5
2023-07-30T05:30:32.931Z,86.5
2023-07-30T05:35:38.742Z,77
2023-07-30T05:40:44.882Z,80.5
2023-07-30T05:45:51.198Z,87
2023-07-30T05:50:57.023Z,85.5
2023-07-30T05:56:03.115Z,83.5
2023-07-30T06:01:09.244Z,86.5
2023-07-30T06:06:15.313Z,86.5
2023-07-30T06:11:21.418Z,89.5
2023-07-30T06:16:27.537Z,88
2023-07-30T06:21:33.634Z,88.5
2023-07-30T06:26:39.708Z,65
2023-07-30T06:31:45.841Z,68
2023-07-30T06:36:51.863Z,58
2023-07-30T06:41:58.073Z,71
2023-07-30T06:47:04.100Z,73.5
2023-07-30T06:52:10.335Z,72.5
2023-07-30T06:57:16.286Z,76.5
2023-07-30T07:02:22.605Z,75.5
2023-07-30T07:07:28.443Z,85.5
2023-07-30T07:12:34.576Z,87.5
2023-07-30T07:17:40.696Z,82
2023-07-30T07:22:47.033Z,81.5
2023-07-30T07:27:52.971Z,82.5
2023-07-30T07:32:58.929Z,80
2023-07-30T07:38:04.997Z,77.5
2023-07-30T07:43:11.113Z,80.5
2023-07-30T07:48:17.235Z,78
2023-07-30T07:53:23.311Z,81
2023-07-30T07:58:29.391Z,81.5
2023-07-30T08:03:35.694Z,80
2023-07-30T08:08:41.601Z,78
2023-07-30T08:13:47.690Z,79.5
2023-07-30T08:18:53.773Z,86
2023-07-30T08:24:00.036Z,81
2023-07-30T08:29:05.976Z,69.5
2023-07-30T08:34:12.200Z,69.5
2023-07-30T08:39:18.150Z,70.5
2023-07-30T08:44:24.405Z,63
2023-07-30T08:49:30.349Z,62.5
2023-07-30T08:54:36.694Z,70.5
2023-07-30T08:59:42.534Z,77.5
2023-07-30T09:04:48.641Z,76.5
2023-07-30T09:09:54.918Z,75.5
2023-07-30T09:15:06.657Z,77.5
2023-07-30T09:20:12.602Z,76.5
2023-07-30T09:25:18.664Z,73.5
2023-07-30T09:30:24.754Z,74
2023-07-30T09:35:30.862Z,75
2023-07-30T09:40:37.225Z,74.5
2023-07-30T09:45:43.057Z,75
2023-07-30T09:50:49.152Z,76
2023-07-30T09:55:55.340Z,75
2023-07-30T10:01:01.380Z,80
2023-07-30T10:06:07.456Z,82.5
2023-07-30T10:11:13.861Z,85.5
2023-07-30T10:16:19.725Z,78.5
2023-07-30T10:21:25.716Z,81
2023-07-30T10:26:31.848Z,76
2023-07-30T10:31:38.084Z,78
2023-07-30T10:36:44.164Z,79
2023-07-30T10:41:50.081Z,74
2023-07-30T10:46:57.219Z,79.5
2023-07-30T10:52:02.275Z,76.5
2023-07-30T10:57:08.363Z,77
2023-07-30T11:02:14.655Z,80.5
2023-07-30T11:07:20.621Z,81
2023-07-30T11:12:26.702Z,78
2023-07-30T11:17:32.780Z,79.5
2023-07-30T11:22:38.855Z,75.5
2023-07-30T11:27:44.947Z,77
2023-07-30T11:32:51.221Z,72
2023-07-30T11:37:57.160Z,71
2023-07-30T11:43:03.224Z,75.5
2023-07-30T11:48:09.341Z,74.5
2023-07-30T11:54:08.607Z,77
2023-07-30T11:58:21.811Z,66.5
2023-07-30T12:03:28.287Z,66.5
2023-07-30T12:08:33.789Z,73
2023-07-30T12:13:40.171Z,61
2023-07-30T12:18:45.893Z,59
2023-07-30T12:23:51.989Z,59.5
2023-07-30T12:28:58.254Z,69
2023-07-30T12:34:04.178Z,66.5
2023-07-30T12:39:10.425Z,65.5
2023-07-30T12:44:16.353Z,68
2023-07-30T12:49:22.486Z,66
2023-07-30T12:54:28.584Z,59.5
2023-07-30T12:59:34.717Z,61
2023-07-30T13:04:41.007Z,64.5
2023-07-30T13:09:46.971Z,64
2023-07-30T13:14:53.237Z,58
2023-07-30T13:19:59.052Z,62
2023-07-30T13:25:05.113Z,59.5
2023-07-30T13:30:11.240Z,57
2023-07-30T13:35:17.330Z,60
2023-07-30T13:40:23.421Z,63.5
2023-07-30T13:45:29.529Z,63
2023-07-30T13:50:35.793Z,60.5
2023-07-30T13:55:41.769Z,58.5
2023-07-30T14:00:48.013Z,62
2023-07-30T14:05:53.927Z,59
2023-07-30T14:11:00.271Z,63
2023-07-30T14:16:06.128Z,59.5
2023-07-30T14:21:12.369Z,64.5
2023-07-30T14:26:18.275Z,61.5
2023-07-30T14:31:24.533Z,60.5
2023-07-30T14:36:30.465Z,61.5
2023-07-30T14:41:36.902Z,57
2023-07-30T14:46:42.721Z,59
2023-07-30T14:51:48.776Z,60.5
2023-07-30T14:56:54.876Z,62.5
2023-07-30T15:02:00.959Z,58.5
2023-07-30T15:07:07.041Z,60
2023-07-30T15:12:13.276Z,61
2023-07-30T15:17:19.234Z,61.5
2023-07-30T15:22:25.338Z,58
2023-07-30T15:27:31.555Z,63.5
2023-07-30T15:32:37.542Z,64
2023-07-30T15:37:43.621Z,66
2023-07-30T15:42:49.726Z,59.5
2023-07-30T15:47:57.230Z,65
2023-07-30T15:53:01.877Z,65
2023-07-30T15:58:07.975Z,68
2023-07-30T16:03:14.120Z,67.5
2023-07-30T16:08:20.194Z,60.5
2023-07-30T16:13:26.277Z,59
2023-07-30T16:18:32.383Z,58.5
2023-07-30T16:23:38.512Z,59.5
2023-07-30T16:28:44.847Z,63
2023-07-30T16:33:50.674Z,60
2023-07-30T16:38:56.782Z,61.5
2023-07-30T16:44:02.847Z,63.5
2023-07-30T16:49:08.948Z,69
2023-07-30T16:54:15.264Z,67
2023-07-30T16:59:21.161Z,64.5
2023-07-30T17:04:27.254Z,68
2023-07-30T17:09:33.311Z,62.5
2023-07-30T17:14:39.420Z,68
2023-07-30T17:19:45.527Z,66.5
2023-07-30T17:24:51.630Z,64
2023-07-30T17:29:57.874Z,66
2023-07-30T17:35:03.935Z,64
2023-07-30T17:40:09.928Z,61.5
2023-07-30T17:45:15.977Z,60
2023-07-30T17:50:22.066Z,60
2023-07-30T17:55:28.165Z,62
2023-07-30T18:00:34.285Z,62.5
2023-07-30T18:05:46.499Z,65.5
2023-07-30T18:10:46.472Z,68.5
2023-07-30T18:15:52.613Z,66
2023-07-30T18:20:58.743Z,66.5
2023-07-30T18:26:04.755Z,70
2023-07-30T18:31:11.185Z,68
2023-07-30T18:36:17.119Z,70
2023-07-30T18:41:23.036Z,68.5
2023-07-30T18:46:29.113Z,68
2023-07-30T18:51:35.223Z,70
2023-07-30T18:56:41.486Z,69.5
2023-07-30T19:01:47.685Z,70
2023-07-30T19:06:53.657Z,69.5
2023-07-30T19:11:59.683Z,71
2023-07-30T19:17:05.736Z,71.5
2023-07-30T19:22:11.803Z,72
2023-07-30T19:27:17.891Z,71.5
2023-07-30T19:32:24.029Z,72.5
2023-07-30T19:37:30.082Z,72.5
2023-07-30T19:42:36.189Z,73.5
2023-07-30T19:47:42.305Z,71.5
2023-07-30T19:52:48.637Z,73
2023-07-30T19:57:54.451Z,72.5
2023-07-30T20:03:00.864Z,73
2023-07-30T20:08:06.684Z,73.5
2023-07-30T20:13:12.874Z,74
2023-07-30T20:18:18.872Z,75.5
2023-07-30T20:23:25.102Z,74.5
2023-07-30T20:28:31.034Z,74.5
2023-07-30T20:33:37.138Z,74.5
2023-07-30T20:38:43.195Z,75
2023-07-30T20:43:49.283Z,74.5
2023-07-30T20:48:55.412Z,75.5
2023-07-30T20:54:01.501Z,76
2023-07-30T20:59:07.639Z,75.5
2023-07-30T21:04:13.691Z,76
2023-07-30T21:09:19.812Z,75.5
2023-07-30T21:14:25.877Z,77
2023-07-30T21:19:32.168Z,77.5
2023-07-30T21:24:38.193Z,77.5
2023-07-30T21:29:44.145Z,77.5
2023-07-30T21:34:50.244Z,78.5
2023-07-30T21:39:56.383Z,77.5
2023-07-30T21:45:02.486Z,76.5
2023-07-30T21:50:08.552Z,76
2023-07-30T21:55:14.652Z,77
2023-07-30T22:00:20.772Z,76.5
2023-07-30T22:05:26.827Z,77.5
2023-07-30T22:10:32.924Z,78
2023-07-30T22:15:39.375Z,79
2023-07-30T22:20:45.114Z,79
2023-07-30T22:25:51.202Z,78.5
2023-07-30T22:30:57.440Z,79.5
2023-07-30T22:36:03.413Z,78.5
2023-07-30T22:41:09.487Z,80
2023-07-30T22:46:15.630Z,81.5
2023-07-30T22:51:22.224Z,80.5
2023-07-30T22:56:27.761Z,80.5
2023-07-30T23:01:33.875Z,80.5
2023-07-30T23:06:40.146Z,80
2023-07-30T23:11:46.060Z,80
2023-07-30T23:16:52.184Z,80
2023-07-30T23:21:58.239Z,80
2023-07-30T23:27:04.325Z,79.5
2023-07-30T23:32:10.420Z,80
2023-07-30T23:37:16.796Z,79.5
2023-07-30T23:42:22.772Z,80.5
2023-07-30T23:47:28.754Z,82
2023-07-30T23:52:34.822Z,80.5
2023-07-30T23:57:40.931Z,80.5
